createdAt,value
2022-11-24T00:06:08.753Z,76284.84
2022-11-24T00:16:39.447Z,76278.78
2022-11-24T00:26:42.974Z,76272.69
2022-11-24T00:36:52.570Z,76246.38
2022-11-24T00:47:01.791Z,76262.56
2022-11-24T00:57:04.073Z,76246.38
2022-11-24T01:07:16.659Z,76246.38
2022-11-24T01:17:19.873Z,76240.31
2022-11-24T01:27:22.101Z,76252.47
2022-11-24T01:37:24.443Z,76252.47
2022-11-24T01:47:37.006Z,76236.25
2022-11-24T01:57:48.071Z,76268.66
2022-11-24T02:07:54.659Z,76244.34
2022-11-24T02:18:00.554Z,76240.31
2022-11-24T02:28:08.975Z,76232.22
2022-11-24T02:38:14.971Z,76228.16
2022-11-24T02:48:17.260Z,76224.13
2022-11-24T02:58:19.369Z,76240.31
2022-11-24T03:08:23.856Z,76226.16
2022-11-24T03:18:28.282Z,76228.16
2022-11-24T03:28:30.359Z,76211.97
2022-11-24T03:38:34.741Z,76226.16
2022-11-24T03:48:41.971Z,76232.22
2022-11-24T04:09:00.390Z,76214.00
2022-11-24T04:19:02.721Z,76214.00
2022-11-24T04:29:04.986Z,76218.03
2022-11-24T04:39:23.633Z,76214.00
2022-11-24T04:49:35.638Z,76234.25
2022-11-24T04:59:37.852Z,76211.97
2022-11-24T05:10:00.624Z,76242.34
2022-11-24T05:20:02.928Z,76238.28
2022-11-24T05:30:07.870Z,76232.22
2022-11-24T05:40:12.830Z,76244.34
2022-11-24T05:50:16.873Z,76236.25
2022-11-24T06:00:20.434Z,76240.31
2022-11-24T06:10:27.316Z,76244.34
2022-11-24T06:20:32.635Z,76179.59
2022-11-24T06:30:35.294Z,76203.88
2022-11-24T06:40:37.467Z,76195.78
2022-11-24T06:50:44.289Z,76220.06
2022-11-24T07:00:48.940Z,76224.13
2022-11-24T07:10:53.329Z,76236.25
2022-11-24T07:20:55.351Z,76238.28
2022-11-24T07:31:05.533Z,76224.13
2022-11-24T07:41:11.500Z,76216.03
2022-11-24T07:51:13.657Z,76207.94
2022-11-24T08:01:17.755Z,76224.13
2022-11-24T08:11:22.901Z,76236.25
2022-11-24T08:21:27.223Z,76228.16
2022-11-24T08:31:36.250Z,76207.94
2022-11-24T08:41:38.330Z,76224.13
2022-11-24T08:51:43.444Z,76207.94
2022-11-24T09:01:46.013Z,76216.03
2022-11-24T09:11:48.125Z,76220.06
2022-11-24T09:21:50.251Z,76209.94
2022-11-24T09:31:52.247Z,76191.72
2022-11-24T09:42:00.246Z,76207.94
2022-11-24T09:52:06.570Z,76195.78
2022-11-24T10:02:12.862Z,76216.03
2022-11-24T10:12:39.195Z,76207.94
2022-11-24T10:23:10.707Z,76187.69
2022-11-24T10:33:30.834Z,76163.41
2022-11-24T10:43:37.714Z,76145.19
2022-11-24T10:53:40.613Z,76145.19
2022-11-24T11:03:47.811Z,76141.13
2022-11-24T11:14:04.716Z,76145.19
2022-11-24T11:24:17.876Z,76124.94
2022-11-24T11:34:26.788Z,76139.09
2022-11-24T11:44:35.933Z,76131.00
2022-11-24T11:54:47.889Z,76167.44
2022-11-24T12:05:06.438Z,76197.81
2022-11-24T12:15:17.427Z,76187.69
2022-11-24T12:25:41.318Z,76211.97
2022-11-24T12:35:46.720Z,76197.81
2022-11-24T12:46:11.160Z,76171.50
2022-11-24T12:56:25.745Z,76155.31
2022-11-24T13:06:35.486Z,76157.31
2022-11-24T13:17:13.414Z,76141.13
2022-11-24T13:27:18.047Z,76137.09
2022-11-24T13:37:40.127Z,76106.72
2022-11-24T13:47:47.138Z,76131.00
2022-11-24T13:57:59.855Z,76139.09
2022-11-24T14:08:06.188Z,76163.41
2022-11-24T14:18:20.446Z,76167.44
2022-11-24T14:28:26.224Z,76179.59
2022-11-24T14:38:28.299Z,76185.66
2022-11-24T14:48:50.325Z,76171.50
2022-11-24T14:58:57.997Z,76151.25
2022-11-24T15:09:02.235Z,76157.31
2022-11-24T15:19:06.446Z,76187.69
2022-11-24T15:29:08.484Z,76207.94
2022-11-24T15:39:13.079Z,76232.22
2022-11-24T15:49:15.112Z,76220.06
2022-11-24T15:59:20.843Z,76230.19
2022-11-24T16:09:23.323Z,76187.69
2022-11-24T16:19:25.331Z,76218.03
2022-11-24T16:29:27.394Z,76234.25
2022-11-24T16:39:29.425Z,76236.25
2022-11-24T16:49:31.670Z,76256.50
2022-11-24T16:59:34.218Z,76262.56
2022-11-24T17:09:40.779Z,76274.72
2022-11-24T17:19:45.345Z,76282.81
2022-11-24T17:29:47.427Z,76284.84
2022-11-24T17:40:12.978Z,76288.88
2022-11-24T17:50:24.049Z,76301.03
2022-11-24T18:00:27.996Z,76309.13
2022-11-24T18:10:36.730Z,76319.25
2022-11-24T18:20:43.151Z,76319.25
2022-11-24T18:30:46.214Z,76296.97
2022-11-24T18:40:54.053Z,76313.19
2022-11-24T18:50:58.384Z,76292.94
2022-11-24T19:01:07.612Z,76305.09
2022-11-24T19:11:18.640Z,76307.09
2022-11-24T19:21:25.991Z,76294.97
2022-11-24T19:31:30.271Z,76321.28
2022-11-24T19:41:34.620Z,76301.03
2022-11-24T19:51:41.577Z,76311.16
2022-11-24T20:01:43.942Z,76309.13
2022-11-24T20:11:47.003Z,76303.06
2022-11-24T20:21:50.413Z,76321.28
2022-11-24T20:31:54.989Z,76272.69
2022-11-24T20:41:57.748Z,76341.50
2022-11-24T20:52:02.062Z,76335.44
2022-11-24T21:02:04.395Z,76363.78
2022-11-24T21:12:10.274Z,76379.97
2022-11-24T21:22:14.493Z,76379.97
2022-11-24T21:32:19.223Z,76396.16
2022-11-24T21:42:23.465Z,76396.16
2022-11-24T21:52:30.586Z,76396.16
2022-11-24T22:02:37.212Z,76382.00
2022-11-24T22:12:39.317Z,76382.00
2022-11-24T22:22:42.662Z,76373.91
2022-11-24T22:32:47.061Z,76390.09
2022-11-24T22:42:49.649Z,76367.81
2022-11-24T22:52:51.919Z,76398.19
2022-11-24T23:02:54.439Z,76396.16
2022-11-24T23:12:58.043Z,76406.28
2022-11-24T23:23:00.058Z,76386.03
2022-11-24T23:33:02.189Z,76412.34
2022-11-24T23:43:05.319Z,76434.63
2022-11-24T23:53:09.599Z,76408.31
